Hartford, Connecticut
Traffic Map
Current Weather Conditions
Hartford, Connecticut
Clear
Clear

Feels Like: 2°
Wind Chill: Ceiling: Unl
Heat Index: Visibility: 10mi
Dew Point: -8° Wind: 6mph
Humidity: 41% Direction: 160° (SSE)
Pressure: 30.34in Gusts: 0mph
Raw Report DataKHFD 211653Z 16005KT 10SM CLR 04/M08 A3034 RMK AO2 SLP272 T00441078
Traffic Incident Summary
Active as of:
Severity:
Category:
InformationThere was an issue retrieving the traffic information for this location. Please try a different location or try again shortly.
Advertisements
Track Severe Weather on mobile